• location
  • image
mod_vvisit_countermod_vvisit_countermod_vvisit_countermod_vvisit_countermod_vvisit_countermod_vvisit_counter
mod_vvisit_counterToday194
mod_vvisit_counterYesterday706
mod_vvisit_counterThis week1266
mod_vvisit_counterLast week3845
mod_vvisit_counterThis month10208
mod_vvisit_counterLast month17836
mod_vvisit_counterAll days921858

We have: 65 guests, 1 bots online
Your IP: 54.81.158.195
 , 
Today: Jun 19, 2018
Airport / Company

Company

Municipal company Siauliu oro uostas.

In November 2003, under the decision of Siauliai City Municipality Council, municipal company Siauliu Oro Uostas was set up. Under the resolution of the Lithuanian Government, the company was granted the right to serve civil transport in Siauliai Military Aerodrome.

The company is a limited liability public entity.

The main objective  – to provide public passenger and cargo air transportation services.

The company’s main activities include airport operations and air transport services.

Currently, 21 employees work for the company.

Organisation chart of the company is given below:

 

Today

Tuesday, 19 June 2018

Aviation Weather Forecast

[source: ADDS]
METAR
EYSA 182250Z AUTO 27007KT 9999NDV NSC 16/09 Q1017 =
TAF
TAF EYSA 182002Z 1821/1906 VRB05KT 9000 SCT040 =
SR / SS: 01:48 / 19:10 UTC (EYSA 2018-06-19)

Search

Who's Online

We have 67 guests online

tic logo en